The Hangar Logo

METARs in Plain English
Latest METAR information for EGVN - BRIZE NORTON

EGVN 191750Z 06011KT 9999 FEW045 12/02 Q1016 BLU NOSIG

In plain english is....

This is a METAR report for EGVN - BRIZE NORTON .
The report was made 21 minutes ago, at 17:50 UTC.
The wind was blowing at a speed of 11 knots (12.7 miles per hour, 5.7 metres per second) from the East/Northeast (060°).
The visibility was greater than 6.2 miles (greater than 10 kilometres).
There were a few clouds at a height of 4500 feet (1372 metres).
The temperature was 12°C (54°F), a dew point of 2°C (36°F) and a relative humidity of 50.3%.
The altimeter setting (airfield QNH) was 1,016 hPa (30.00 inHg).
Other remarks BLU NOSIG.

UK Mainland

Ireland

Channel Islands

France

Other



Enter
Tel: 07092 887559 - Fax: 07092 183262

Terms of Use | Privacy Statement
Content copyright © 1999-2012 TheHangar.co.uk. All rights reserved.
Please send your questions, comments, or bug reports to the Webmaster.